sensor_id;sensor_type;location;lat;lon;timestamp;temperature;humidity
18805;DHT22;9530;48.930;9.526;2023-03-14T00:02:16;9.40;99.90
18805;DHT22;9530;48.930;9.526;2023-03-14T00:04:42;9.50;99.90
18805;DHT22;9530;48.930;9.526;2023-03-14T00:07:10;9.50;99.90
18805;DHT22;9530;48.930;9.526;2023-03-14T00:09:39;9.50;99.90
18805;DHT22;9530;48.930;9.526;2023-03-14T00:12:06;9.50;99.90
18805;DHT22;9530;48.930;9.526;2023-03-14T00:14:33;9.50;99.90
18805;DHT22;9530;48.930;9.526;2023-03-14T00:16:59;9.50;99.90
18805;DHT22;9530;48.930;9.526;2023-03-14T00:19:26;9.50;99.90
18805;DHT22;9530;48.930;9.526;2023-03-14T00:21:53;9.50;99.90
18805;DHT22;9530;48.930;9.526;2023-03-14T00:24:19;9.50;99.90
18805;DHT22;9530;48.930;9.526;2023-03-14T00:26:47;9.50;99.90
18805;DHT22;9530;48.930;9.526;2023-03-14T00:29:14;9.50;99.90
18805;DHT22;9530;48.930;9.526;2023-03-14T00:31:41;9.50;99.90
18805;DHT22;9530;48.930;9.526;2023-03-14T00:34:07;9.60;99.90
18805;DHT22;9530;48.930;9.526;2023-03-14T00:36:34;9.60;99.90
18805;DHT22;9530;48.930;9.526;2023-03-14T00:39:01;9.60;99.90
18805;DHT22;9530;48.930;9.526;2023-03-14T00:41:27;9.50;99.90
18805;DHT22;9530;48.930;9.526;2023-03-14T00:43:55;9.50;99.90
18805;DHT22;9530;48.930;9.526;2023-03-14T00:46:22;9.60;99.90
18805;DHT22;9530;48.930;9.526;2023-03-14T00:48:49;9.60;99.90
18805;DHT22;9530;48.930;9.526;2023-03-14T00:51:15;9.60;99.90
18805;DHT22;9530;48.930;9.526;2023-03-14T00:53:42;9.60;99.90
18805;DHT22;9530;48.930;9.526;2023-03-14T00:56:11;9.60;99.90
18805;DHT22;9530;48.930;9.526;2023-03-14T00:58:38;9.60;99.90
18805;DHT22;9530;48.930;9.526;2023-03-14T01:01:08;9.60;99.90
18805;DHT22;9530;48.930;9.526;2023-03-14T01:03:35;9.60;99.90
18805;DHT22;9530;48.930;9.526;2023-03-14T01:06:13;9.60;99.90
18805;DHT22;9530;48.930;9.526;2023-03-14T01:08:40;9.60;99.90
18805;DHT22;9530;48.930;9.526;2023-03-14T01:11:08;9.60;99.90
18805;DHT22;9530;48.930;9.526;2023-03-14T01:13:35;9.60;99.90
18805;DHT22;9530;48.930;9.526;2023-03-14T01:16:04;9.60;99.90
18805;DHT22;9530;48.930;9.526;2023-03-14T01:18:33;9.60;99.90
18805;DHT22;9530;48.930;9.526;2023-03-14T01:21:01;9.60;99.90
18805;DHT22;9530;48.930;9.526;2023-03-14T01:23:28;9.50;99.90
18805;DHT22;9530;48.930;9.526;2023-03-14T01:25:55;9.50;99.90
18805;DHT22;9530;48.930;9.526;2023-03-14T01:28:21;9.40;99.90
18805;DHT22;9530;48.930;9.526;2023-03-14T01:30:48;9.40;99.90
18805;DHT22;9530;48.930;9.526;2023-03-14T01:33:14;9.50;99.90
18805;DHT22;9530;48.930;9.526;2023-03-14T01:35:42;9.50;99.90
18805;DHT22;9530;48.930;9.526;2023-03-14T01:38:09;9.60;99.90
18805;DHT22;9530;48.930;9.526;2023-03-14T01:40:42;9.60;99.90
18805;DHT22;9530;48.930;9.526;2023-03-14T01:43:14;9.60;99.90
18805;DHT22;9530;48.930;9.526;2023-03-14T01:48:55;9.60;99.90
18805;DHT22;9530;48.930;9.526;2023-03-14T01:51:28;9.60;99.90
18805;DHT22;9530;48.930;9.526;2023-03-14T01:54:02;9.60;99.90
18805;DHT22;9530;48.930;9.526;2023-03-14T01:56:30;9.70;99.90
18805;DHT22;9530;48.930;9.526;2023-03-14T01:58:58;9.60;99.90
18805;DHT22;9530;48.930;9.526;2023-03-14T02:01:26;9.60;99.90
18805;DHT22;9530;48.930;9.526;2023-03-14T02:03:54;9.60;99.90
18805;DHT22;9530;48.930;9.526;2023-03-14T02:06:26;9.60;99.90
18805;DHT22;9530;48.930;9.526;2023-03-14T02:08:55;9.50;99.90
18805;DHT22;9530;48.930;9.526;2023-03-14T02:11:26;9.60;99.90
18805;DHT22;9530;48.930;9.526;2023-03-14T02:13:55;9.60;99.90
18805;DHT22;9530;48.930;9.526;2023-03-14T02:16:23;9.50;99.90
18805;DHT22;9530;48.930;9.526;2023-03-14T02:18:49;9.50;99.90
18805;DHT22;9530;48.930;9.526;2023-03-14T02:21:22;9.50;99.90
18805;DHT22;9530;48.930;9.526;2023-03-14T02:24:00;9.50;99.90
18805;DHT22;9530;48.930;9.526;2023-03-14T02:26:34;9.50;99.90
18805;DHT22;9530;48.930;9.526;2023-03-14T02:29:04;9.50;99.90
18805;DHT22;9530;48.930;9.526;2023-03-14T02:31:31;9.50;99.90
18805;DHT22;9530;48.930;9.526;2023-03-14T02:34:00;9.50;99.90
18805;DHT22;9530;48.930;9.526;2023-03-14T02:36:27;9.50;99.90
18805;DHT22;9530;48.930;9.526;2023-03-14T02:39:01;9.50;99.90
18805;DHT22;9530;48.930;9.526;2023-03-14T02:41:30;9.50;99.90
18805;DHT22;9530;48.930;9.526;2023-03-14T02:43:57;9.50;99.90
18805;DHT22;9530;48.930;9.526;2023-03-14T02:46:25;9.40;99.90
18805;DHT22;9530;48.930;9.526;2023-03-14T02:48:54;9.40;99.90
18805;DHT22;9530;48.930;9.526;2023-03-14T02:51:24;9.50;99.90
18805;DHT22;9530;48.930;9.526;2023-03-14T02:53:52;9.50;99.90
18805;DHT22;9530;48.930;9.526;2023-03-14T02:56:18;9.50;99.90
18805;DHT22;9530;48.930;9.526;2023-03-14T02:58:45;9.50;99.90
18805;DHT22;9530;48.930;9.526;2023-03-14T03:01:11;9.60;99.90
18805;DHT22;9530;48.930;9.526;2023-03-14T03:03:39;9.50;99.90
18805;DHT22;9530;48.930;9.526;2023-03-14T03:06:07;9.60;99.90
18805;DHT22;9530;48.930;9.526;2023-03-14T03:08:33;9.60;99.90
18805;DHT22;9530;48.930;9.526;2023-03-14T03:11:00;9.60;99.90
18805;DHT22;9530;48.930;9.526;2023-03-14T03:13:27;9.60;99.90
18805;DHT22;9530;48.930;9.526;2023-03-14T03:15:53;9.60;99.90
18805;DHT22;9530;48.930;9.526;2023-03-14T03:18:20;9.70;99.90
18805;DHT22;9530;48.930;9.526;2023-03-14T03:20:48;9.60;99.90
18805;DHT22;9530;48.930;9.526;2023-03-14T03:23:15;9.70;99.90
18805;DHT22;9530;48.930;9.526;2023-03-14T03:25:42;9.60;99.90
18805;DHT22;9530;48.930;9.526;2023-03-14T03:28:08;9.70;99.90
18805;DHT22;9530;48.930;9.526;2023-03-14T03:30:38;9.70;99.90
18805;DHT22;9530;48.930;9.526;2023-03-14T03:33:05;9.70;99.90
18805;DHT22;9530;48.930;9.526;2023-03-14T03:35:32;9.70;99.90
18805;DHT22;9530;48.930;9.526;2023-03-14T03:38:00;9.70;99.90
18805;DHT22;9530;48.930;9.526;2023-03-14T03:40:27;9.60;99.90
18805;DHT22;9530;48.930;9.526;2023-03-14T03:42:53;9.60;99.90
18805;DHT22;9530;48.930;9.526;2023-03-14T03:45:20;9.50;99.90
18805;DHT22;9530;48.930;9.526;2023-03-14T03:47:47;9.60;99.90
18805;DHT22;9530;48.930;9.526;2023-03-14T03:50:13;9.50;99.90
18805;DHT22;9530;48.930;9.526;2023-03-14T03:52:40;9.50;99.90
18805;DHT22;9530;48.930;9.526;2023-03-14T03:55:08;9.60;99.90
18805;DHT22;9530;48.930;9.526;2023-03-14T03:57:35;9.50;99.90
18805;DHT22;9530;48.930;9.526;2023-03-14T04:00:03;9.50;99.90
18805;DHT22;9530;48.930;9.526;2023-03-14T04:02:31;9.50;99.90
18805;DHT22;9530;48.930;9.526;2023-03-14T04:04:58;9.40;99.90
18805;DHT22;9530;48.930;9.526;2023-03-14T04:07:24;9.40;99.90
18805;DHT22;9530;48.930;9.526;2023-03-14T04:09:51;9.40;99.90
18805;DHT22;9530;48.930;9.526;2023-03-14T04:12:19;9.40;99.90
18805;DHT22;9530;48.930;9.526;2023-03-14T04:14:45;9.40;99.90
18805;DHT22;9530;48.930;9.526;2023-03-14T04:17:12;9.40;99.90
18805;DHT22;9530;48.930;9.526;2023-03-14T04:19:39;9.40;99.90
18805;DHT22;9530;48.930;9.526;2023-03-14T04:22:06;9.30;99.90
18805;DHT22;9530;48.930;9.526;2023-03-14T04:24:32;9.30;99.90
18805;DHT22;9530;48.930;9.526;2023-03-14T04:26:59;9.30;99.90
18805;DHT22;9530;48.930;9.526;2023-03-14T04:29:27;9.20;99.90
18805;DHT22;9530;48.930;9.526;2023-03-14T04:31:54;9.30;99.90
18805;DHT22;9530;48.930;9.526;2023-03-14T04:34:20;9.30;99.90
18805;DHT22;9530;48.930;9.526;2023-03-14T04:36:47;9.30;99.90
18805;DHT22;9530;48.930;9.526;2023-03-14T04:39:14;9.30;99.90
18805;DHT22;9530;48.930;9.526;2023-03-14T04:41:40;9.30;99.90
18805;DHT22;9530;48.930;9.526;2023-03-14T04:44:07;9.30;99.90
18805;DHT22;9530;48.930;9.526;2023-03-14T04:46:35;9.30;99.90
18805;DHT22;9530;48.930;9.526;2023-03-14T04:49:02;9.30;99.90
18805;DHT22;9530;48.930;9.526;2023-03-14T04:51:28;9.30;99.90
18805;DHT22;9530;48.930;9.526;2023-03-14T04:53:55;9.20;99.90
18805;DHT22;9530;48.930;9.526;2023-03-14T04:56:22;9.20;99.90
18805;DHT22;9530;48.930;9.526;2023-03-14T04:58:48;9.30;99.90
18805;DHT22;9530;48.930;9.526;2023-03-14T05:01:15;9.30;99.90
18805;DHT22;9530;48.930;9.526;2023-03-14T05:03:44;9.30;99.90
18805;DHT22;9530;48.930;9.526;2023-03-14T05:06:11;9.30;99.90
18805;DHT22;9530;48.930;9.526;2023-03-14T05:08:37;9.20;99.90
18805;DHT22;9530;48.930;9.526;2023-03-14T05:11:05;9.20;99.90
18805;DHT22;9530;48.930;9.526;2023-03-14T05:13:31;9.20;99.90
18805;DHT22;9530;48.930;9.526;2023-03-14T05:16:04;9.20;99.90
18805;DHT22;9530;48.930;9.526;2023-03-14T05:18:30;9.20;99.90
18805;DHT22;9530;48.930;9.526;2023-03-14T05:20:58;9.10;99.90
18805;DHT22;9530;48.930;9.526;2023-03-14T05:23:25;9.10;99.90
18805;DHT22;9530;48.930;9.526;2023-03-14T05:25:53;9.10;99.90
18805;DHT22;9530;48.930;9.526;2023-03-14T05:28:19;9.10;99.90
18805;DHT22;9530;48.930;9.526;2023-03-14T05:30:46;9.20;99.90
18805;DHT22;9530;48.930;9.526;2023-03-14T05:33:13;9.20;99.90
18805;DHT22;9530;48.930;9.526;2023-03-14T05:35:41;9.20;99.90
18805;DHT22;9530;48.930;9.526;2023-03-14T05:38:09;9.20;99.90
18805;DHT22;9530;48.930;9.526;2023-03-14T05:40:36;9.20;99.90
18805;DHT22;9530;48.930;9.526;2023-03-14T05:43:03;9.10;99.90
18805;DHT22;9530;48.930;9.526;2023-03-14T05:45:29;9.10;99.90
18805;DHT22;9530;48.930;9.526;2023-03-14T05:47:56;9.10;99.90
18805;DHT22;9530;48.930;9.526;2023-03-14T05:50:22;9.10;99.90
18805;DHT22;9530;48.930;9.526;2023-03-14T05:52:49;9.00;99.90
18805;DHT22;9530;48.930;9.526;2023-03-14T05:55:17;9.00;99.90
18805;DHT22;9530;48.930;9.526;2023-03-14T05:57:44;9.00;99.90
18805;DHT22;9530;48.930;9.526;2023-03-14T06:00:11;9.00;99.90
18805;DHT22;9530;48.930;9.526;2023-03-14T06:02:38;9.10;99.90
18805;DHT22;9530;48.930;9.526;2023-03-14T06:05:06;9.10;99.90
18805;DHT22;9530;48.930;9.526;2023-03-14T06:07:33;9.10;99.90
18805;DHT22;9530;48.930;9.526;2023-03-14T06:10:00;9.20;99.90
18805;DHT22;9530;48.930;9.526;2023-03-14T06:12:28;9.20;99.90
18805;DHT22;9530;48.930;9.526;2023-03-14T06:14:55;9.30;99.90
18805;DHT22;9530;48.930;9.526;2023-03-14T06:17:21;9.40;99.90
18805;DHT22;9530;48.930;9.526;2023-03-14T06:19:48;9.50;99.90
18805;DHT22;9530;48.930;9.526;2023-03-14T06:22:15;9.50;99.90
18805;DHT22;9530;48.930;9.526;2023-03-14T06:24:41;9.50;99.90
18805;DHT22;9530;48.930;9.526;2023-03-14T06:27:08;9.50;99.90
18805;DHT22;9530;48.930;9.526;2023-03-14T06:29:36;9.50;99.90
18805;DHT22;9530;48.930;9.526;2023-03-14T06:32:03;9.50;99.90
18805;DHT22;9530;48.930;9.526;2023-03-14T06:34:30;9.50;99.90
18805;DHT22;9530;48.930;9.526;2023-03-14T06:36:57;9.40;99.90
18805;DHT22;9530;48.930;9.526;2023-03-14T06:39:24;9.40;99.90
18805;DHT22;9530;48.930;9.526;2023-03-14T06:41:50;9.40;99.90
18805;DHT22;9530;48.930;9.526;2023-03-14T06:44:17;9.50;99.90
18805;DHT22;9530;48.930;9.526;2023-03-14T06:46:45;9.50;99.90
18805;DHT22;9530;48.930;9.526;2023-03-14T06:49:12;9.50;99.90
18805;DHT22;9530;48.930;9.526;2023-03-14T06:51:38;9.30;99.90
18805;DHT22;9530;48.930;9.526;2023-03-14T06:54:05;9.30;99.90
18805;DHT22;9530;48.930;9.526;2023-03-14T06:56:32;9.40;99.90
18805;DHT22;9530;48.930;9.526;2023-03-14T06:58:58;9.50;99.90
18805;DHT22;9530;48.930;9.526;2023-03-14T07:01:27;9.50;99.90
18805;DHT22;9530;48.930;9.526;2023-03-14T07:03:56;9.50;99.90
18805;DHT22;9530;48.930;9.526;2023-03-14T07:06:23;9.60;99.90
18805;DHT22;9530;48.930;9.526;2023-03-14T07:08:50;9.60;99.90
18805;DHT22;9530;48.930;9.526;2023-03-14T07:11:17;9.60;99.90
18805;DHT22;9530;48.930;9.526;2023-03-14T07:13:43;9.60;99.90
18805;DHT22;9530;48.930;9.526;2023-03-14T07:16:10;9.70;99.90
18805;DHT22;9530;48.930;9.526;2023-03-14T07:18:37;9.80;99.90
18805;DHT22;9530;48.930;9.526;2023-03-14T07:21:05;9.80;99.90
18805;DHT22;9530;48.930;9.526;2023-03-14T07:23:32;9.90;99.90
18805;DHT22;9530;48.930;9.526;2023-03-14T07:25:59;10.00;99.90
18805;DHT22;9530;48.930;9.526;2023-03-14T07:28:26;10.10;99.90
18805;DHT22;9530;48.930;9.526;2023-03-14T07:30:53;10.20;99.90
18805;DHT22;9530;48.930;9.526;2023-03-14T07:33:20;10.30;99.90
18805;DHT22;9530;48.930;9.526;2023-03-14T07:35:47;10.50;99.90
18805;DHT22;9530;48.930;9.526;2023-03-14T07:38:15;10.90;99.90
18805;DHT22;9530;48.930;9.526;2023-03-14T07:40:42;11.20;99.90
18805;DHT22;9530;48.930;9.526;2023-03-14T07:43:08;11.40;99.90
18805;DHT22;9530;48.930;9.526;2023-03-14T07:45:35;11.50;99.90
18805;DHT22;9530;48.930;9.526;2023-03-14T07:48:02;11.60;99.90
18805;DHT22;9530;48.930;9.526;2023-03-14T07:50:29;11.70;99.90
18805;DHT22;9530;48.930;9.526;2023-03-14T07:52:55;11.60;99.90
18805;DHT22;9530;48.930;9.526;2023-03-14T07:55:23;11.80;99.90
18805;DHT22;9530;48.930;9.526;2023-03-14T07:57:50;11.90;99.90
18805;DHT22;9530;48.930;9.526;2023-03-14T08:00:17;12.10;99.90
18805;DHT22;9530;48.930;9.526;2023-03-14T08:02:44;12.30;99.90
18805;DHT22;9530;48.930;9.526;2023-03-14T08:05:11;12.30;99.90
18805;DHT22;9530;48.930;9.526;2023-03-14T08:07:37;12.40;99.90
18805;DHT22;9530;48.930;9.526;2023-03-14T08:10:05;12.40;99.90
18805;DHT22;9530;48.930;9.526;2023-03-14T08:12:33;12.20;99.90
18805;DHT22;9530;48.930;9.526;2023-03-14T08:15:00;11.90;99.90
18805;DHT22;9530;48.930;9.526;2023-03-14T08:17:27;11.80;99.90
18805;DHT22;9530;48.930;9.526;2023-03-14T08:19:54;11.80;99.90
18805;DHT22;9530;48.930;9.526;2023-03-14T08:22:21;11.70;99.90
18805;DHT22;9530;48.930;9.526;2023-03-14T08:24:47;11.70;99.90
18805;DHT22;9530;48.930;9.526;2023-03-14T08:27:14;11.80;99.90
18805;DHT22;9530;48.930;9.526;2023-03-14T08:29:42;11.90;99.90
18805;DHT22;9530;48.930;9.526;2023-03-14T08:32:09;12.30;99.90
18805;DHT22;9530;48.930;9.526;2023-03-14T08:34:36;12.60;99.90
18805;DHT22;9530;48.930;9.526;2023-03-14T08:37:02;12.90;99.90
18805;DHT22;9530;48.930;9.526;2023-03-14T08:39:29;13.20;99.90
18805;DHT22;9530;48.930;9.526;2023-03-14T08:41:56;13.30;99.90
18805;DHT22;9530;48.930;9.526;2023-03-14T08:44:23;13.30;99.90
18805;DHT22;9530;48.930;9.526;2023-03-14T08:46:51;13.40;99.90
18805;DHT22;9530;48.930;9.526;2023-03-14T08:49:17;13.40;99.90
18805;DHT22;9530;48.930;9.526;2023-03-14T08:51:44;13.60;99.90
18805;DHT22;9530;48.930;9.526;2023-03-14T08:54:11;13.70;99.90
18805;DHT22;9530;48.930;9.526;2023-03-14T08:56:37;13.60;99.90
18805;DHT22;9530;48.930;9.526;2023-03-14T08:59:04;13.40;99.90
18805;DHT22;9530;48.930;9.526;2023-03-14T09:01:31;13.30;99.90
18805;DHT22;9530;48.930;9.526;2023-03-14T09:03:59;13.10;99.90
18805;DHT22;9530;48.930;9.526;2023-03-14T09:06:26;13.00;99.90
18805;DHT22;9530;48.930;9.526;2023-03-14T09:08:53;12.90;99.90
18805;DHT22;9530;48.930;9.526;2023-03-14T09:11:20;12.90;99.90
18805;DHT22;9530;48.930;9.526;2023-03-14T09:13:46;12.80;99.90
18805;DHT22;9530;48.930;9.526;2023-03-14T09:16:14;12.70;99.90
18805;DHT22;9530;48.930;9.526;2023-03-14T09:18:41;12.80;99.90
18805;DHT22;9530;48.930;9.526;2023-03-14T09:21:09;12.70;99.90
18805;DHT22;9530;48.930;9.526;2023-03-14T09:23:35;12.70;99.90
18805;DHT22;9530;48.930;9.526;2023-03-14T09:26:02;12.70;99.90
18805;DHT22;9530;48.930;9.526;2023-03-14T09:28:29;12.70;99.90
18805;DHT22;9530;48.930;9.526;2023-03-14T09:30:55;12.80;99.90
18805;DHT22;9530;48.930;9.526;2023-03-14T09:33:22;12.90;99.90
18805;DHT22;9530;48.930;9.526;2023-03-14T09:35:49;12.90;99.90
18805;DHT22;9530;48.930;9.526;2023-03-14T09:38:17;12.80;99.90
18805;DHT22;9530;48.930;9.526;2023-03-14T09:40:46;12.70;99.90
18805;DHT22;9530;48.930;9.526;2023-03-14T09:43:14;12.60;99.90
18805;DHT22;9530;48.930;9.526;2023-03-14T09:45:42;12.60;99.90
18805;DHT22;9530;48.930;9.526;2023-03-14T09:48:15;12.60;99.90
18805;DHT22;9530;48.930;9.526;2023-03-14T09:50:44;12.80;99.90
18805;DHT22;9530;48.930;9.526;2023-03-14T09:53:15;13.00;99.90
18805;DHT22;9530;48.930;9.526;2023-03-14T09:55:45;13.10;99.90
18805;DHT22;9530;48.930;9.526;2023-03-14T09:58:21;13.00;99.90
18805;DHT22;9530;48.930;9.526;2023-03-14T10:00:50;12.90;99.90
18805;DHT22;9530;48.930;9.526;2023-03-14T10:03:25;12.80;99.90
18805;DHT22;9530;48.930;9.526;2023-03-14T10:05:52;12.90;99.90
18805;DHT22;9530;48.930;9.526;2023-03-14T10:08:19;12.80;99.90
18805;DHT22;9530;48.930;9.526;2023-03-14T10:10:47;12.80;99.90
18805;DHT22;9530;48.930;9.526;2023-03-14T10:13:17;12.80;99.90
18805;DHT22;9530;48.930;9.526;2023-03-14T10:15:50;12.80;99.90
18805;DHT22;9530;48.930;9.526;2023-03-14T10:18:17;12.90;99.90
18805;DHT22;9530;48.930;9.526;2023-03-14T10:20:45;13.00;99.90
18805;DHT22;9530;48.930;9.526;2023-03-14T10:23:23;13.30;99.90
18805;DHT22;9530;48.930;9.526;2023-03-14T10:26:05;13.50;99.90
18805;DHT22;9530;48.930;9.526;2023-03-14T10:28:34;13.70;99.90
18805;DHT22;9530;48.930;9.526;2023-03-14T10:31:03;13.60;99.90
18805;DHT22;9530;48.930;9.526;2023-03-14T10:33:32;13.60;99.90
18805;DHT22;9530;48.930;9.526;2023-03-14T10:36:00;13.60;99.90
18805;DHT22;9530;48.930;9.526;2023-03-14T10:38:28;13.70;99.90
18805;DHT22;9530;48.930;9.526;2023-03-14T10:40:56;14.10;99.90
18805;DHT22;9530;48.930;9.526;2023-03-14T10:43:27;14.40;99.90
18805;DHT22;9530;48.930;9.526;2023-03-14T10:45:56;14.60;99.90
18805;DHT22;9530;48.930;9.526;2023-03-14T10:48:30;14.50;99.90
18805;DHT22;9530;48.930;9.526;2023-03-14T10:51:01;14.40;99.90
18805;DHT22;9530;48.930;9.526;2023-03-14T10:53:34;14.20;99.90
18805;DHT22;9530;48.930;9.526;2023-03-14T10:56:03;14.30;99.90
18805;DHT22;9530;48.930;9.526;2023-03-14T10:58:35;14.20;99.90
18805;DHT22;9530;48.930;9.526;2023-03-14T11:01:16;14.00;99.90
18805;DHT22;9530;48.930;9.526;2023-03-14T11:03:51;13.80;99.90
18805;DHT22;9530;48.930;9.526;2023-03-14T11:06:23;13.50;99.90
18805;DHT22;9530;48.930;9.526;2023-03-14T11:08:57;13.30;99.90
18805;DHT22;9530;48.930;9.526;2023-03-14T11:11:31;13.10;99.90
18805;DHT22;9530;48.930;9.526;2023-03-14T11:14:07;13.00;99.90
18805;DHT22;9530;48.930;9.526;2023-03-14T11:16:44;12.90;99.90
18805;DHT22;9530;48.930;9.526;2023-03-14T11:19:23;12.90;99.90
18805;DHT22;9530;48.930;9.526;2023-03-14T11:21:57;12.90;99.90
18805;DHT22;9530;48.930;9.526;2023-03-14T11:24:36;12.90;99.90
18805;DHT22;9530;48.930;9.526;2023-03-14T11:27:09;13.00;99.90
18805;DHT22;9530;48.930;9.526;2023-03-14T11:29:48;13.00;99.90
18805;DHT22;9530;48.930;9.526;2023-03-14T11:32:23;13.10;99.90
18805;DHT22;9530;48.930;9.526;2023-03-14T11:34:54;13.10;99.90
18805;DHT22;9530;48.930;9.526;2023-03-14T11:37:25;13.00;99.90
18805;DHT22;9530;48.930;9.526;2023-03-14T11:39:59;12.90;99.90
18805;DHT22;9530;48.930;9.526;2023-03-14T11:42:28;12.70;99.90
18805;DHT22;9530;48.930;9.526;2023-03-14T11:44:57;12.50;99.90
18805;DHT22;9530;48.930;9.526;2023-03-14T11:47:29;12.40;99.90
18805;DHT22;9530;48.930;9.526;2023-03-14T11:49:59;12.40;99.90
18805;DHT22;9530;48.930;9.526;2023-03-14T11:52:32;12.30;99.90
18805;DHT22;9530;48.930;9.526;2023-03-14T11:55:04;12.20;99.90
18805;DHT22;9530;48.930;9.526;2023-03-14T11:57:32;12.10;99.90
18805;DHT22;9530;48.930;9.526;2023-03-14T12:00:02;12.10;99.90
18805;DHT22;9530;48.930;9.526;2023-03-14T12:02:38;12.10;99.90
18805;DHT22;9530;48.930;9.526;2023-03-14T12:05:43;12.00;99.90
18805;DHT22;9530;48.930;9.526;2023-03-14T12:08:47;11.90;99.90
18805;DHT22;9530;48.930;9.526;2023-03-14T12:11:19;11.80;99.90
18805;DHT22;9530;48.930;9.526;2023-03-14T12:13:49;11.80;99.90
18805;DHT22;9530;48.930;9.526;2023-03-14T12:16:35;11.90;99.90
18805;DHT22;9530;48.930;9.526;2023-03-14T12:19:26;11.90;99.90
18805;DHT22;9530;48.930;9.526;2023-03-14T12:21:56;11.80;99.90
18805;DHT22;9530;48.930;9.526;2023-03-14T12:24:26;11.70;99.90
18805;DHT22;9530;48.930;9.526;2023-03-14T12:26:56;11.60;99.90
18805;DHT22;9530;48.930;9.526;2023-03-14T12:29:24;11.50;99.90
18805;DHT22;9530;48.930;9.526;2023-03-14T12:34:44;11.30;99.90
18805;DHT22;9530;48.930;9.526;2023-03-14T12:37:19;11.10;99.90
18805;DHT22;9530;48.930;9.526;2023-03-14T12:39:56;11.00;99.90
18805;DHT22;9530;48.930;9.526;2023-03-14T12:42:38;11.10;99.90
18805;DHT22;9530;48.930;9.526;2023-03-14T12:45:24;11.40;99.90
18805;DHT22;9530;48.930;9.526;2023-03-14T12:47:56;11.40;99.90
18805;DHT22;9530;48.930;9.526;2023-03-14T12:50:32;11.20;99.90
18805;DHT22;9530;48.930;9.526;2023-03-14T12:56:21;11.00;99.90
18805;DHT22;9530;48.930;9.526;2023-03-14T12:59:02;11.00;99.90
18805;DHT22;9530;48.930;9.526;2023-03-14T13:01:33;10.90;99.90
18805;DHT22;9530;48.930;9.526;2023-03-14T13:04:04;11.10;99.90
18805;DHT22;9530;48.930;9.526;2023-03-14T13:06:52;10.90;99.90
18805;DHT22;9530;48.930;9.526;2023-03-14T13:09:49;10.50;99.90
18805;DHT22;9530;48.930;9.526;2023-03-14T13:12:18;10.20;99.90
18805;DHT22;9530;48.930;9.526;2023-03-14T13:14:46;9.80;99.90
18805;DHT22;9530;48.930;9.526;2023-03-14T13:17:15;9.70;99.90
18805;DHT22;9530;48.930;9.526;2023-03-14T13:19:50;9.60;99.90
18805;DHT22;9530;48.930;9.526;2023-03-14T13:22:22;9.70;99.90
18805;DHT22;9530;48.930;9.526;2023-03-14T13:24:49;9.90;99.90
18805;DHT22;9530;48.930;9.526;2023-03-14T13:27:18;9.90;99.90
18805;DHT22;9530;48.930;9.526;2023-03-14T13:29:48;9.80;99.90
18805;DHT22;9530;48.930;9.526;2023-03-14T13:32:19;9.90;99.90
18805;DHT22;9530;48.930;9.526;2023-03-14T13:34:46;9.90;99.90
18805;DHT22;9530;48.930;9.526;2023-03-14T13:37:19;9.90;99.90
18805;DHT22;9530;48.930;9.526;2023-03-14T13:39:49;10.00;99.90
18805;DHT22;9530;48.930;9.526;2023-03-14T13:42:17;10.00;99.90
18805;DHT22;9530;48.930;9.526;2023-03-14T13:44:44;10.00;99.90
18805;DHT22;9530;48.930;9.526;2023-03-14T13:47:15;10.00;99.90
18805;DHT22;9530;48.930;9.526;2023-03-14T13:49:43;10.10;99.90
18805;DHT22;9530;48.930;9.526;2023-03-14T13:52:28;10.20;99.90
18805;DHT22;9530;48.930;9.526;2023-03-14T13:54:55;10.30;99.90
18805;DHT22;9530;48.930;9.526;2023-03-14T13:57:23;10.40;99.90
18805;DHT22;9530;48.930;9.526;2023-03-14T14:00:00;10.50;99.90
18805;DHT22;9530;48.930;9.526;2023-03-14T14:02:32;10.40;99.90
18805;DHT22;9530;48.930;9.526;2023-03-14T14:04:59;10.50;99.90
18805;DHT22;9530;48.930;9.526;2023-03-14T14:07:28;10.40;99.90
18805;DHT22;9530;48.930;9.526;2023-03-14T14:09:55;10.50;99.90
18805;DHT22;9530;48.930;9.526;2023-03-14T14:12:26;10.50;99.90
18805;DHT22;9530;48.930;9.526;2023-03-14T14:14:58;10.60;99.90
18805;DHT22;9530;48.930;9.526;2023-03-14T14:17:29;10.50;99.90
18805;DHT22;9530;48.930;9.526;2023-03-14T14:19:58;10.30;99.90
18805;DHT22;9530;48.930;9.526;2023-03-14T14:22:25;10.30;99.90
18805;DHT22;9530;48.930;9.526;2023-03-14T14:24:54;10.20;99.90
18805;DHT22;9530;48.930;9.526;2023-03-14T14:27:24;10.20;99.90
18805;DHT22;9530;48.930;9.526;2023-03-14T14:29:59;10.20;99.90
18805;DHT22;9530;48.930;9.526;2023-03-14T14:32:34;10.20;99.90
18805;DHT22;9530;48.930;9.526;2023-03-14T14:35:01;10.10;99.90
18805;DHT22;9530;48.930;9.526;2023-03-14T14:37:31;9.90;99.90
18805;DHT22;9530;48.930;9.526;2023-03-14T14:40:07;9.70;99.90
18805;DHT22;9530;48.930;9.526;2023-03-14T14:42:39;9.70;99.90
18805;DHT22;9530;48.930;9.526;2023-03-14T14:45:13;9.70;99.90
18805;DHT22;9530;48.930;9.526;2023-03-14T14:47:49;9.70;99.90
18805;DHT22;9530;48.930;9.526;2023-03-14T14:50:26;9.70;99.90
18805;DHT22;9530;48.930;9.526;2023-03-14T14:52:56;9.70;99.90
18805;DHT22;9530;48.930;9.526;2023-03-14T14:55:30;9.70;99.90
18805;DHT22;9530;48.930;9.526;2023-03-14T14:57:58;9.50;99.90
18805;DHT22;9530;48.930;9.526;2023-03-14T15:00:39;9.50;99.90
18805;DHT22;9530;48.930;9.526;2023-03-14T15:03:13;9.60;99.90
18805;DHT22;9530;48.930;9.526;2023-03-14T15:05:41;9.70;99.90
18805;DHT22;9530;48.930;9.526;2023-03-14T15:08:09;9.70;99.90
18805;DHT22;9530;48.930;9.526;2023-03-14T15:10:37;9.60;99.90
18805;DHT22;9530;48.930;9.526;2023-03-14T15:13:04;9.50;99.90
18805;DHT22;9530;48.930;9.526;2023-03-14T15:15:31;9.40;99.90
18805;DHT22;9530;48.930;9.526;2023-03-14T15:17:58;9.40;99.90
18805;DHT22;9530;48.930;9.526;2023-03-14T15:20:24;9.50;99.90
18805;DHT22;9530;48.930;9.526;2023-03-14T15:22:52;9.50;99.90
18805;DHT22;9530;48.930;9.526;2023-03-14T15:25:18;9.60;99.90
18805;DHT22;9530;48.930;9.526;2023-03-14T15:27:46;9.70;99.90
18805;DHT22;9530;48.930;9.526;2023-03-14T15:30:14;9.80;99.90
18805;DHT22;9530;48.930;9.526;2023-03-14T15:32:41;9.90;99.90
18805;DHT22;9530;48.930;9.526;2023-03-14T15:35:08;10.10;99.90
18805;DHT22;9530;48.930;9.526;2023-03-14T15:37:35;10.20;99.90
18805;DHT22;9530;48.930;9.526;2023-03-14T15:40:02;10.10;99.90
18805;DHT22;9530;48.930;9.526;2023-03-14T15:42:35;10.10;99.90
18805;DHT22;9530;48.930;9.526;2023-03-14T15:45:04;10.20;99.90
18805;DHT22;9530;48.930;9.526;2023-03-14T15:47:31;10.20;99.90
18805;DHT22;9530;48.930;9.526;2023-03-14T15:49:58;10.30;99.90
18805;DHT22;9530;48.930;9.526;2023-03-14T15:52:25;10.70;99.90
18805;DHT22;9530;48.930;9.526;2023-03-14T15:54:51;10.70;99.90
18805;DHT22;9530;48.930;9.526;2023-03-14T15:57:18;10.50;99.90
18805;DHT22;9530;48.930;9.526;2023-03-14T15:59:45;10.40;99.90
18805;DHT22;9530;48.930;9.526;2023-03-14T16:02:13;10.30;99.90
18805;DHT22;9530;48.930;9.526;2023-03-14T16:04:40;10.20;99.90
18805;DHT22;9530;48.930;9.526;2023-03-14T16:07:06;10.30;99.90
18805;DHT22;9530;48.930;9.526;2023-03-14T16:09:33;10.10;99.90
18805;DHT22;9530;48.930;9.526;2023-03-14T16:12:00;10.00;99.90
18805;DHT22;9530;48.930;9.526;2023-03-14T16:14:26;9.90;99.90
18805;DHT22;9530;48.930;9.526;2023-03-14T16:16:53;9.80;99.90